sensor_id;sensor_type;location;lat;lon;timestamp;pressure;altitude;pressure_sealevel;temperature;humidity
60611;BME280;46439;51.164;13.572;2023-03-03T00:01:32;100634.68;;;1.10;68.11
60611;BME280;46439;51.164;13.572;2023-03-03T00:04:01;100638.86;;;1.17;68.30
60611;BME280;46439;51.164;13.572;2023-03-03T00:06:29;100637.60;;;1.20;68.46
60611;BME280;46439;51.164;13.572;2023-03-03T00:08:58;100641.52;;;1.17;68.33
60611;BME280;46439;51.164;13.572;2023-03-03T00:11:27;100646.32;;;1.11;68.22
60611;BME280;46439;51.164;13.572;2023-03-03T00:13:56;100645.63;;;1.03;68.28
60611;BME280;46439;51.164;13.572;2023-03-03T00:16:27;100642.14;;;0.97;68.18
60611;BME280;46439;51.164;13.572;2023-03-03T00:18:56;100639.41;;;0.92;68.21
60611;BME280;46439;51.164;13.572;2023-03-03T00:21:46;100644.17;;;0.87;68.32
60611;BME280;46439;51.164;13.572;2023-03-03T00:24:23;100653.35;;;0.82;67.97
60611;BME280;46439;51.164;13.572;2023-03-03T00:26:54;100656.13;;;0.72;67.80
60611;BME280;46439;51.164;13.572;2023-03-03T00:29:32;100664.41;;;0.62;67.89
60611;BME280;46439;51.164;13.572;2023-03-03T00:32:20;100672.11;;;0.46;67.67
60611;BME280;46439;51.164;13.572;2023-03-03T00:34:53;100664.29;;;0.24;67.48
60611;BME280;46439;51.164;13.572;2023-03-03T00:37:32;100663.20;;;0.10;67.12
60611;BME280;46439;51.164;13.572;2023-03-03T00:40:19;100659.91;;;0.03;67.22
60611;BME280;46439;51.164;13.572;2023-03-03T00:42:50;100663.92;;;-0.05;67.13
60611;BME280;46439;51.164;13.572;2023-03-03T00:45:37;100669.77;;;-0.14;67.15
60611;BME280;46439;51.164;13.572;2023-03-03T00:48:22;100670.16;;;-0.17;67.22
60611;BME280;46439;51.164;13.572;2023-03-03T00:50:53;100663.46;;;-0.21;67.15
60611;BME280;46439;51.164;13.572;2023-03-03T00:53:23;100660.59;;;-0.29;67.18
60611;BME280;46439;51.164;13.572;2023-03-03T00:55:53;100659.27;;;-0.31;67.14
60611;BME280;46439;51.164;13.572;2023-03-03T00:58:22;100658.33;;;-0.27;67.23
60611;BME280;46439;51.164;13.572;2023-03-03T01:00:52;100664.26;;;-0.19;67.49
60611;BME280;46439;51.164;13.572;2023-03-03T01:03:23;100675.02;;;-0.16;67.64
60611;BME280;46439;51.164;13.572;2023-03-03T01:05:59;100671.17;;;-0.11;67.79
60611;BME280;46439;51.164;13.572;2023-03-03T01:08:27;100668.79;;;-0.06;67.89
60611;BME280;46439;51.164;13.572;2023-03-03T01:10:58;100666.36;;;0.01;68.12
60611;BME280;46439;51.164;13.572;2023-03-03T01:13:29;100671.11;;;0.05;67.90
60611;BME280;46439;51.164;13.572;2023-03-03T01:15:59;100669.27;;;0.12;68.20
60611;BME280;46439;51.164;13.572;2023-03-03T01:18:28;100667.11;;;0.21;68.39
60611;BME280;46439;51.164;13.572;2023-03-03T01:20:57;100671.25;;;0.29;68.59
60611;BME280;46439;51.164;13.572;2023-03-03T01:23:25;100668.73;;;0.29;68.71
60611;BME280;46439;51.164;13.572;2023-03-03T01:25:54;100665.88;;;0.32;68.45
60611;BME280;46439;51.164;13.572;2023-03-03T01:28:22;100667.91;;;0.34;68.38
60611;BME280;46439;51.164;13.572;2023-03-03T01:30:51;100662.20;;;0.32;68.69
60611;BME280;46439;51.164;13.572;2023-03-03T01:33:19;100660.04;;;0.38;68.81
60611;BME280;46439;51.164;13.572;2023-03-03T01:35:48;100666.81;;;0.40;68.73
60611;BME280;46439;51.164;13.572;2023-03-03T01:38:17;100666.95;;;0.44;68.85
60611;BME280;46439;51.164;13.572;2023-03-03T01:40:52;100665.74;;;0.49;68.86
60611;BME280;46439;51.164;13.572;2023-03-03T01:43:22;100661.87;;;0.54;68.99
60611;BME280;46439;51.164;13.572;2023-03-03T01:46:24;100651.89;;;0.58;69.10
60611;BME280;46439;51.164;13.572;2023-03-03T01:48:58;100639.45;;;0.55;68.76
60611;BME280;46439;51.164;13.572;2023-03-03T01:51:32;100638.80;;;0.55;68.97
60611;BME280;46439;51.164;13.572;2023-03-03T01:54:04;100634.47;;;0.59;69.12
60611;BME280;46439;51.164;13.572;2023-03-03T01:56:34;100638.09;;;0.69;69.33
60611;BME280;46439;51.164;13.572;2023-03-03T01:59:05;100634.25;;;0.70;69.26
60611;BME280;46439;51.164;13.572;2023-03-03T02:01:36;100635.86;;;0.73;69.49
60611;BME280;46439;51.164;13.572;2023-03-03T02:04:05;100639.70;;;0.74;69.31
60611;BME280;46439;51.164;13.572;2023-03-03T02:06:38;100641.46;;;0.74;69.35
60611;BME280;46439;51.164;13.572;2023-03-03T02:09:11;100651.28;;;0.67;69.37
60611;BME280;46439;51.164;13.572;2023-03-03T02:11:45;100645.05;;;0.63;68.90
60611;BME280;46439;51.164;13.572;2023-03-03T02:14:14;100645.63;;;0.65;69.15
60611;BME280;46439;51.164;13.572;2023-03-03T02:16:43;100650.34;;;0.60;69.14
60611;BME280;46439;51.164;13.572;2023-03-03T02:19:17;100650.22;;;0.59;69.26
60611;BME280;46439;51.164;13.572;2023-03-03T02:21:47;100641.34;;;0.56;69.14
60611;BME280;46439;51.164;13.572;2023-03-03T02:24:20;100644.24;;;0.50;69.16
60611;BME280;46439;51.164;13.572;2023-03-03T02:26:52;100639.55;;;0.54;69.11
60611;BME280;46439;51.164;13.572;2023-03-03T02:29:20;100640.51;;;0.55;69.34
60611;BME280;46439;51.164;13.572;2023-03-03T02:31:49;100644.46;;;0.57;69.29
60611;BME280;46439;51.164;13.572;2023-03-03T02:34:17;100638.24;;;0.58;69.43
60611;BME280;46439;51.164;13.572;2023-03-03T02:36:46;100639.63;;;0.64;69.42
60611;BME280;46439;51.164;13.572;2023-03-03T02:39:18;100640.99;;;0.62;69.31
60611;BME280;46439;51.164;13.572;2023-03-03T02:41:49;100642.41;;;0.56;69.36
60611;BME280;46439;51.164;13.572;2023-03-03T02:44:21;100642.04;;;0.51;69.34
60611;BME280;46439;51.164;13.572;2023-03-03T02:46:52;100644.91;;;0.45;69.29
60611;BME280;46439;51.164;13.572;2023-03-03T02:49:23;100642.05;;;0.40;69.30
60611;BME280;46439;51.164;13.572;2023-03-03T02:52:12;100645.39;;;0.31;68.92
60611;BME280;46439;51.164;13.572;2023-03-03T02:54:42;100652.70;;;0.31;68.97
60611;BME280;46439;51.164;13.572;2023-03-03T02:57:10;100645.80;;;0.31;69.13
60611;BME280;46439;51.164;13.572;2023-03-03T02:59:39;100648.11;;;0.31;69.26
60611;BME280;46439;51.164;13.572;2023-03-03T03:02:07;100650.77;;;0.34;69.42
60611;BME280;46439;51.164;13.572;2023-03-03T03:04:36;100652.84;;;0.34;69.43
60611;BME280;46439;51.164;13.572;2023-03-03T03:07:04;100660.93;;;0.35;69.26
60611;BME280;46439;51.164;13.572;2023-03-03T03:09:33;100661.09;;;0.30;69.45
60611;BME280;46439;51.164;13.572;2023-03-03T03:12:21;100657.48;;;0.23;69.19
60611;BME280;46439;51.164;13.572;2023-03-03T03:14:50;100657.33;;;0.22;69.16
60611;BME280;46439;51.164;13.572;2023-03-03T03:17:19;100654.55;;;0.27;69.16
60611;BME280;46439;51.164;13.572;2023-03-03T03:19:47;100656.58;;;0.28;69.42
60611;BME280;46439;51.164;13.572;2023-03-03T03:22:16;100654.53;;;0.32;69.38
60611;BME280;46439;51.164;13.572;2023-03-03T03:24:45;100653.25;;;0.39;69.57
60611;BME280;46439;51.164;13.572;2023-03-03T03:27:14;100654.58;;;0.43;69.38
60611;BME280;46439;51.164;13.572;2023-03-03T03:29:47;100645.95;;;0.51;69.70
60611;BME280;46439;51.164;13.572;2023-03-03T03:32:15;100644.22;;;0.53;69.84
60611;BME280;46439;51.164;13.572;2023-03-03T03:34:45;100642.89;;;0.52;69.81
60611;BME280;46439;51.164;13.572;2023-03-03T03:37:13;100637.21;;;0.54;69.83
60611;BME280;46439;51.164;13.572;2023-03-03T03:39:42;100638.08;;;0.58;69.82
60611;BME280;46439;51.164;13.572;2023-03-03T03:42:11;100648.59;;;0.60;69.94
60611;BME280;46439;51.164;13.572;2023-03-03T03:44:39;100649.20;;;0.64;69.93
60611;BME280;46439;51.164;13.572;2023-03-03T03:47:08;100650.86;;;0.63;69.68
60611;BME280;46439;51.164;13.572;2023-03-03T03:49:36;100651.61;;;0.57;69.79
60611;BME280;46439;51.164;13.572;2023-03-03T03:52:05;100655.79;;;0.58;69.84
60611;BME280;46439;51.164;13.572;2023-03-03T03:54:34;100666.95;;;0.57;69.82
60611;BME280;46439;51.164;13.572;2023-03-03T03:57:02;100668.56;;;0.58;69.91
60611;BME280;46439;51.164;13.572;2023-03-03T03:59:30;100674.58;;;0.55;69.83
60611;BME280;46439;51.164;13.572;2023-03-03T04:01:59;100673.52;;;0.49;69.70
60611;BME280;46439;51.164;13.572;2023-03-03T04:04:27;100673.02;;;0.40;69.64
60611;BME280;46439;51.164;13.572;2023-03-03T04:06:56;100674.08;;;0.40;69.43
60611;BME280;46439;51.164;13.572;2023-03-03T04:09:24;100677.62;;;0.29;69.29
60611;BME280;46439;51.164;13.572;2023-03-03T04:11:53;100673.64;;;0.18;69.27
60611;BME280;46439;51.164;13.572;2023-03-03T04:14:21;100670.17;;;0.17;69.15
60611;BME280;46439;51.164;13.572;2023-03-03T04:16:50;100674.41;;;0.20;69.26
60611;BME280;46439;51.164;13.572;2023-03-03T04:19:18;100672.66;;;0.29;69.37
60611;BME280;46439;51.164;13.572;2023-03-03T04:21:46;100676.73;;;0.29;69.57
60611;BME280;46439;51.164;13.572;2023-03-03T04:24:15;100680.08;;;0.32;69.61
60611;BME280;46439;51.164;13.572;2023-03-03T04:26:44;100683.86;;;0.36;69.91
60611;BME280;46439;51.164;13.572;2023-03-03T04:29:12;100687.36;;;0.37;69.85
60611;BME280;46439;51.164;13.572;2023-03-03T04:31:41;100683.03;;;0.33;69.54
60611;BME280;46439;51.164;13.572;2023-03-03T04:34:09;100687.15;;;0.29;69.45
60611;BME280;46439;51.164;13.572;2023-03-03T04:36:37;100690.39;;;0.17;69.28
60611;BME280;46439;51.164;13.572;2023-03-03T04:39:06;100687.63;;;0.07;69.21
60611;BME280;46439;51.164;13.572;2023-03-03T04:41:34;100690.60;;;0.05;69.07
60611;BME280;46439;51.164;13.572;2023-03-03T04:44:03;100684.11;;;0.06;69.35
60611;BME280;46439;51.164;13.572;2023-03-03T04:46:32;100690.21;;;0.05;69.23
60611;BME280;46439;51.164;13.572;2023-03-03T04:49:00;100686.04;;;0.10;69.36
60611;BME280;46439;51.164;13.572;2023-03-03T04:51:28;100685.09;;;0.19;69.57
60611;BME280;46439;51.164;13.572;2023-03-03T04:53:57;100690.14;;;0.32;69.83
60611;BME280;46439;51.164;13.572;2023-03-03T04:56:25;100685.93;;;0.43;70.17
60611;BME280;46439;51.164;13.572;2023-03-03T04:58:55;100683.33;;;0.57;70.41
60611;BME280;46439;51.164;13.572;2023-03-03T05:01:24;100686.11;;;0.63;70.55
60611;BME280;46439;51.164;13.572;2023-03-03T05:03:52;100689.40;;;0.70;70.48
60611;BME280;46439;51.164;13.572;2023-03-03T05:06:21;100686.81;;;0.74;70.58
60611;BME280;46439;51.164;13.572;2023-03-03T05:08:49;100691.95;;;0.74;70.53
60611;BME280;46439;51.164;13.572;2023-03-03T05:11:18;100690.95;;;0.76;70.81
60611;BME280;46439;51.164;13.572;2023-03-03T05:13:46;100681.66;;;0.77;70.38
60611;BME280;46439;51.164;13.572;2023-03-03T05:16:15;100669.97;;;0.81;70.57
60611;BME280;46439;51.164;13.572;2023-03-03T05:18:44;100673.45;;;0.84;70.65
60611;BME280;46439;51.164;13.572;2023-03-03T05:21:12;100684.69;;;0.91;70.95
60611;BME280;46439;51.164;13.572;2023-03-03T05:23:41;100690.98;;;0.98;71.21
60611;BME280;46439;51.164;13.572;2023-03-03T05:26:09;100690.34;;;1.05;71.09
60611;BME280;46439;51.164;13.572;2023-03-03T05:28:38;100684.16;;;1.10;71.12
60611;BME280;46439;51.164;13.572;2023-03-03T05:31:06;100679.62;;;1.14;71.27
60611;BME280;46439;51.164;13.572;2023-03-03T05:33:35;100685.23;;;1.21;71.15
60611;BME280;46439;51.164;13.572;2023-03-03T05:36:04;100692.98;;;1.19;71.33
60611;BME280;46439;51.164;13.572;2023-03-03T05:38:33;100702.63;;;1.15;71.27
60611;BME280;46439;51.164;13.572;2023-03-03T05:41:02;100696.48;;;1.06;71.07
60611;BME280;46439;51.164;13.572;2023-03-03T05:43:30;100695.85;;;1.00;70.96
60611;BME280;46439;51.164;13.572;2023-03-03T05:45:59;100693.55;;;0.97;70.77
60611;BME280;46439;51.164;13.572;2023-03-03T05:48:28;100687.02;;;0.96;70.91
60611;BME280;46439;51.164;13.572;2023-03-03T05:50:58;100685.26;;;0.95;70.88
60611;BME280;46439;51.164;13.572;2023-03-03T05:53:27;100689.15;;;0.96;70.97
60611;BME280;46439;51.164;13.572;2023-03-03T05:55:56;100692.40;;;0.89;70.85
60611;BME280;46439;51.164;13.572;2023-03-03T05:58:24;100695.20;;;0.85;70.71
60611;BME280;46439;51.164;13.572;2023-03-03T06:00:53;100694.23;;;0.83;70.66
60611;BME280;46439;51.164;13.572;2023-03-03T06:03:21;100689.12;;;0.83;70.96
60611;BME280;46439;51.164;13.572;2023-03-03T06:05:50;100687.40;;;0.82;70.88
60611;BME280;46439;51.164;13.572;2023-03-03T06:08:18;100692.14;;;0.83;70.85
60611;BME280;46439;51.164;13.572;2023-03-03T06:10:47;100689.95;;;0.81;71.00
60611;BME280;46439;51.164;13.572;2023-03-03T06:13:16;100687.72;;;0.82;70.76
60611;BME280;46439;51.164;13.572;2023-03-03T06:15:44;100694.39;;;0.80;70.82
60611;BME280;46439;51.164;13.572;2023-03-03T06:18:13;100695.59;;;0.79;70.68
60611;BME280;46439;51.164;13.572;2023-03-03T06:20:41;100695.45;;;0.75;71.00
60611;BME280;46439;51.164;13.572;2023-03-03T06:23:10;100702.29;;;0.73;70.69
60611;BME280;46439;51.164;13.572;2023-03-03T06:25:39;100712.77;;;0.73;70.91
60611;BME280;46439;51.164;13.572;2023-03-03T06:28:07;100723.66;;;0.71;70.93
60611;BME280;46439;51.164;13.572;2023-03-03T06:30:36;100731.59;;;0.69;70.69
60611;BME280;46439;51.164;13.572;2023-03-03T06:33:05;100730.52;;;0.61;70.80
60611;BME280;46439;51.164;13.572;2023-03-03T06:35:33;100737.67;;;0.57;70.71
60611;BME280;46439;51.164;13.572;2023-03-03T06:38:02;100736.61;;;0.51;70.57
60611;BME280;46439;51.164;13.572;2023-03-03T06:40:30;100732.64;;;0.47;70.54
60611;BME280;46439;51.164;13.572;2023-03-03T06:42:59;100732.84;;;0.41;70.60
60611;BME280;46439;51.164;13.572;2023-03-03T06:45:30;100730.35;;;0.41;70.76
60611;BME280;46439;51.164;13.572;2023-03-03T06:47:58;100727.54;;;0.41;70.45
60611;BME280;46439;51.164;13.572;2023-03-03T06:50:27;100728.04;;;0.41;70.54
60611;BME280;46439;51.164;13.572;2023-03-03T06:53:01;100721.98;;;0.39;70.52
60611;BME280;46439;51.164;13.572;2023-03-03T06:55:34;100733.20;;;0.41;70.44
60611;BME280;46439;51.164;13.572;2023-03-03T06:58:10;100734.71;;;0.50;70.75
60611;BME280;46439;51.164;13.572;2023-03-03T07:00:42;100739.20;;;0.58;71.09
60611;BME280;46439;51.164;13.572;2023-03-03T07:03:16;100743.70;;;0.56;71.05
60611;BME280;46439;51.164;13.572;2023-03-03T07:05:45;100737.77;;;0.55;71.11
60611;BME280;46439;51.164;13.572;2023-03-03T07:08:17;100739.48;;;0.53;70.98
60611;BME280;46439;51.164;13.572;2023-03-03T07:10:46;100738.34;;;0.52;70.86
60611;BME280;46439;51.164;13.572;2023-03-03T07:13:21;100739.68;;;0.50;71.01
60611;BME280;46439;51.164;13.572;2023-03-03T07:15:51;100744.35;;;0.52;71.04
60611;BME280;46439;51.164;13.572;2023-03-03T07:18:38;100748.56;;;0.55;71.02
60611;BME280;46439;51.164;13.572;2023-03-03T07:21:18;100750.80;;;0.54;70.94
60611;BME280;46439;51.164;13.572;2023-03-03T07:23:49;100751.91;;;0.53;71.34
60611;BME280;46439;51.164;13.572;2023-03-03T07:26:20;100756.81;;;0.51;70.92
60611;BME280;46439;51.164;13.572;2023-03-03T07:28:55;100764.06;;;0.54;71.07
60611;BME280;46439;51.164;13.572;2023-03-03T07:31:34;100769.25;;;0.56;71.18
60611;BME280;46439;51.164;13.572;2023-03-03T07:34:12;100775.06;;;0.57;71.13
60611;BME280;46439;51.164;13.572;2023-03-03T07:36:42;100781.40;;;0.69;71.07
60611;BME280;46439;51.164;13.572;2023-03-03T07:39:29;100785.04;;;0.73;71.35
60611;BME280;46439;51.164;13.572;2023-03-03T07:44:47;100788.55;;;0.65;71.09
60611;BME280;46439;51.164;13.572;2023-03-03T07:47:21;100787.27;;;0.60;71.14
60611;BME280;46439;51.164;13.572;2023-03-03T07:49:51;100781.98;;;0.59;71.10
60611;BME280;46439;51.164;13.572;2023-03-03T07:52:30;100783.58;;;0.65;71.29
60611;BME280;46439;51.164;13.572;2023-03-03T07:55:01;100781.45;;;0.68;71.34
60611;BME280;46439;51.164;13.572;2023-03-03T07:57:40;100774.06;;;0.67;71.39
60611;BME280;46439;51.164;13.572;2023-03-03T08:03:15;100776.82;;;0.71;71.34
60611;BME280;46439;51.164;13.572;2023-03-03T08:05:47;100778.36;;;0.75;71.58
60611;BME280;46439;51.164;13.572;2023-03-03T08:08:27;100777.64;;;0.78;71.58
60611;BME280;46439;51.164;13.572;2023-03-03T08:10:59;100776.33;;;0.79;71.70
60611;BME280;46439;51.164;13.572;2023-03-03T08:13:37;100782.02;;;0.79;71.60
60611;BME280;46439;51.164;13.572;2023-03-03T08:16:27;100781.42;;;0.77;71.55
60611;BME280;46439;51.164;13.572;2023-03-03T08:19:02;100770.66;;;0.73;71.43
60611;BME280;46439;51.164;13.572;2023-03-03T08:21:32;100776.58;;;0.72;71.40
60611;BME280;46439;51.164;13.572;2023-03-03T08:24:02;100780.71;;;0.71;71.30
60611;BME280;46439;51.164;13.572;2023-03-03T08:26:31;100780.20;;;0.77;71.64
60611;BME280;46439;51.164;13.572;2023-03-03T08:28:59;100782.52;;;0.80;71.62
60611;BME280;46439;51.164;13.572;2023-03-03T08:31:28;100782.30;;;0.77;71.58
60611;BME280;46439;51.164;13.572;2023-03-03T08:33:57;100780.95;;;0.76;71.74
60611;BME280;46439;51.164;13.572;2023-03-03T08:36:26;100779.77;;;0.70;71.45
60611;BME280;46439;51.164;13.572;2023-03-03T08:38:54;100782.16;;;0.65;71.46
60611;BME280;46439;51.164;13.572;2023-03-03T08:41:23;100779.09;;;0.66;71.46
60611;BME280;46439;51.164;13.572;2023-03-03T08:43:52;100785.27;;;0.69;71.37
60611;BME280;46439;51.164;13.572;2023-03-03T08:46:21;100792.39;;;0.66;71.33
60611;BME280;46439;51.164;13.572;2023-03-03T08:48:49;100801.07;;;0.66;71.50
60611;BME280;46439;51.164;13.572;2023-03-03T08:51:18;100803.19;;;0.63;71.43
60611;BME280;46439;51.164;13.572;2023-03-03T08:53:47;100804.85;;;0.56;71.35
60611;BME280;46439;51.164;13.572;2023-03-03T08:56:15;100802.70;;;0.51;71.35
60611;BME280;46439;51.164;13.572;2023-03-03T08:58:43;100799.86;;;0.45;71.09
60611;BME280;46439;51.164;13.572;2023-03-03T09:01:15;100801.47;;;0.45;71.41
60611;BME280;46439;51.164;13.572;2023-03-03T09:03:45;100798.16;;;0.47;70.99
60611;BME280;46439;51.164;13.572;2023-03-03T09:06:14;100796.82;;;0.46;71.30
60611;BME280;46439;51.164;13.572;2023-03-03T09:08:42;100799.19;;;0.47;71.43
60611;BME280;46439;51.164;13.572;2023-03-03T09:11:12;100800.41;;;0.53;71.62
60611;BME280;46439;51.164;13.572;2023-03-03T09:13:42;100800.06;;;0.53;71.26
60611;BME280;46439;51.164;13.572;2023-03-03T09:16:14;100805.27;;;0.52;71.43
60611;BME280;46439;51.164;13.572;2023-03-03T09:18:44;100811.45;;;0.55;71.64
60611;BME280;46439;51.164;13.572;2023-03-03T09:21:24;100813.19;;;0.55;71.71
60611;BME280;46439;51.164;13.572;2023-03-03T09:23:57;100814.38;;;0.54;71.49
60611;BME280;46439;51.164;13.572;2023-03-03T09:26:28;100812.63;;;0.59;71.75
60611;BME280;46439;51.164;13.572;2023-03-03T09:29:02;100814.16;;;0.63;71.96
60611;BME280;46439;51.164;13.572;2023-03-03T09:31:40;100818.33;;;0.65;71.64
60611;BME280;46439;51.164;13.572;2023-03-03T09:34:19;100818.74;;;0.64;71.93
60611;BME280;46439;51.164;13.572;2023-03-03T09:36:49;100820.88;;;0.57;71.77
60611;BME280;46439;51.164;13.572;2023-03-03T09:39:19;100821.98;;;0.56;71.69
60611;BME280;46439;51.164;13.572;2023-03-03T09:42:05;100819.02;;;0.59;71.67
60611;BME280;46439;51.164;13.572;2023-03-03T09:44:49;100823.93;;;0.60;71.83
60611;BME280;46439;51.164;13.572;2023-03-03T09:47:30;100830.31;;;0.60;71.86
60611;BME280;46439;51.164;13.572;2023-03-03T09:50:12;100833.13;;;0.60;72.03
60611;BME280;46439;51.164;13.572;2023-03-03T09:52:52;100829.45;;;0.62;71.80
60611;BME280;46439;51.164;13.572;2023-03-03T09:55:33;100829.83;;;0.62;71.88
60611;BME280;46439;51.164;13.572;2023-03-03T09:58:14;100824.77;;;0.57;71.64
60611;BME280;46439;51.164;13.572;2023-03-03T10:00:53;100829.27;;;0.56;71.85
60611;BME280;46439;51.164;13.572;2023-03-03T10:04:00;100825.77;;;0.59;72.00
60611;BME280;46439;51.164;13.572;2023-03-03T10:06:34;100820.80;;;0.62;71.93
60611;BME280;46439;51.164;13.572;2023-03-03T10:09:28;100830.44;;;0.66;72.19
60611;BME280;46439;51.164;13.572;2023-03-03T10:12:07;100835.00;;;0.67;72.15
60611;BME280;46439;51.164;13.572;2023-03-03T10:14:51;100843.42;;;0.66;72.00
60611;BME280;46439;51.164;13.572;2023-03-03T10:17:28;100847.08;;;0.64;71.86
60611;BME280;46439;51.164;13.572;2023-03-03T10:20:14;100847.02;;;0.59;71.97
60611;BME280;46439;51.164;13.572;2023-03-03T10:22:51;100847.28;;;0.48;71.69
60611;BME280;46439;51.164;13.572;2023-03-03T10:25:27;100843.60;;;0.45;71.89
60611;BME280;46439;51.164;13.572;2023-03-03T10:28:24;100841.77;;;0.46;71.84
60611;BME280;46439;51.164;13.572;2023-03-03T10:31:07;100844.89;;;0.47;71.79
60611;BME280;46439;51.164;13.572;2023-03-03T10:33:45;100841.70;;;0.47;71.99
60611;BME280;46439;51.164;13.572;2023-03-03T10:36:41;100845.48;;;0.49;71.81
60611;BME280;46439;51.164;13.572;2023-03-03T10:39:23;100848.54;;;0.51;71.98
60611;BME280;46439;51.164;13.572;2023-03-03T10:42:08;100849.98;;;0.53;71.90
60611;BME280;46439;51.164;13.572;2023-03-03T10:44:51;100856.55;;;0.56;71.99
60611;BME280;46439;51.164;13.572;2023-03-03T10:50:22;100855.08;;;0.54;71.96
60611;BME280;46439;51.164;13.572;2023-03-03T10:53:07;100852.50;;;0.56;71.98
60611;BME280;46439;51.164;13.572;2023-03-03T10:55:45;100851.53;;;0.57;72.11
60611;BME280;46439;51.164;13.572;2023-03-03T11:01:18;100851.84;;;0.58;72.20
60611;BME280;46439;51.164;13.572;2023-03-03T11:04:18;100851.02;;;0.61;71.96
60611;BME280;46439;51.164;13.572;2023-03-03T11:06:55;100851.02;;;0.63;72.07
60611;BME280;46439;51.164;13.572;2023-03-03T11:09:43;100849.11;;;0.65;72.34
60611;BME280;46439;51.164;13.572;2023-03-03T11:12:27;100847.44;;;0.70;72.46
60611;BME280;46439;51.164;13.572;2023-03-03T11:15:20;100843.89;;;0.75;72.29
60611;BME280;46439;51.164;13.572;2023-03-03T11:18:05;100842.45;;;0.82;72.74
60611;BME280;46439;51.164;13.572;2023-03-03T11:20:41;100839.48;;;0.86;72.59
60611;BME280;46439;51.164;13.572;2023-03-03T11:23:28;100832.66;;;0.91;72.44
60611;BME280;46439;51.164;13.572;2023-03-03T11:26:08;100835.45;;;0.94;72.70
60611;BME280;46439;51.164;13.572;2023-03-03T11:28:54;100835.39;;;0.92;72.69
60611;BME280;46439;51.164;13.572;2023-03-03T11:31:30;100834.77;;;0.91;72.62
60611;BME280;46439;51.164;13.572;2023-03-03T11:34:16;100832.58;;;0.89;72.41
60611;BME280;46439;51.164;13.572;2023-03-03T11:36:51;100834.65;;;0.87;72.38
60611;BME280;46439;51.164;13.572;2023-03-03T11:39:24;100828.77;;;0.85;72.50
60611;BME280;46439;51.164;13.572;2023-03-03T11:42:03;100826.75;;;0.86;72.46
60611;BME280;46439;51.164;13.572;2023-03-03T11:44:39;100823.88;;;0.92;72.37
60611;BME280;46439;51.164;13.572;2023-03-03T11:47:17;100821.23;;;0.92;72.59
60611;BME280;46439;51.164;13.572;2023-03-03T11:49:51;100825.75;;;0.94;72.54
60611;BME280;46439;51.164;13.572;2023-03-03T11:52:27;100824.75;;;0.99;72.81
60611;BME280;46439;51.164;13.572;2023-03-03T11:55:03;100821.64;;;1.03;72.84
60611;BME280;46439;51.164;13.572;2023-03-03T11:57:40;100817.85;;;1.09;73.19
60611;BME280;46439;51.164;13.572;2023-03-03T12:00:21;100818.14;;;1.13;72.74
60611;BME280;46439;51.164;13.572;2023-03-03T12:03:01;100815.88;;;1.16;72.76
60611;BME280;46439;51.164;13.572;2023-03-03T12:05:47;100814.11;;;1.24;73.32
60611;BME280;46439;51.164;13.572;2023-03-03T12:08:39;100814.16;;;1.26;73.19
60611;BME280;46439;51.164;13.572;2023-03-03T12:11:17;100813.05;;;1.24;73.07
60611;BME280;46439;51.164;13.572;2023-03-03T12:13:58;100808.08;;;1.21;73.07
60611;BME280;46439;51.164;13.572;2023-03-03T12:16:40;100805.70;;;1.23;73.06
60611;BME280;46439;51.164;13.572;2023-03-03T12:19:32;100806.44;;;1.25;72.88
60611;BME280;46439;51.164;13.572;2023-03-03T12:25:17;100799.91;;;1.30;73.01
60611;BME280;46439;51.164;13.572;2023-03-03T12:27:51;100797.54;;;1.34;73.12
60611;BME280;46439;51.164;13.572;2023-03-03T12:30:29;100799.16;;;1.39;73.29
60611;BME280;46439;51.164;13.572;2023-03-03T12:33:10;100797.23;;;1.44;73.30
60611;BME280;46439;51.164;13.572;2023-03-03T12:35:45;100794.82;;;1.43;73.06
60611;BME280;46439;51.164;13.572;2023-03-03T12:38:24;100790.73;;;1.46;72.99
60611;BME280;46439;51.164;13.572;2023-03-03T12:41:02;100788.10;;;1.45;73.12
60611;BME280;46439;51.164;13.572;2023-03-03T12:43:49;100784.87;;;1.51;73.27
60611;BME280;46439;51.164;13.572;2023-03-03T12:46:23;100782.09;;;1.64;73.52
60611;BME280;46439;51.164;13.572;2023-03-03T12:48:56;100778.74;;;1.69;73.83
60611;BME280;46439;51.164;13.572;2023-03-03T12:51:35;100781.67;;;1.73;73.56
60611;BME280;46439;51.164;13.572;2023-03-03T12:54:40;100778.18;;;1.80;74.02
60611;BME280;46439;51.164;13.572;2023-03-03T12:57:17;100773.11;;;1.90;73.66
60611;BME280;46439;51.164;13.572;2023-03-03T12:59:54;100773.67;;;1.89;73.69
60611;BME280;46439;51.164;13.572;2023-03-03T13:02:37;100768.73;;;1.86;73.68
60611;BME280;46439;51.164;13.572;2023-03-03T13:05:15;100770.98;;;1.84;73.46
60611;BME280;46439;51.164;13.572;2023-03-03T13:07:51;100773.17;;;1.84;73.51
60611;BME280;46439;51.164;13.572;2023-03-03T13:10:26;100772.35;;;1.88;73.59
60611;BME280;46439;51.164;13.572;2023-03-03T13:13:05;100765.89;;;1.89;73.58
60611;BME280;46439;51.164;13.572;2023-03-03T13:15:38;100767.88;;;1.94;73.69
60611;BME280;46439;51.164;13.572;2023-03-03T13:18:28;100764.88;;;1.93;73.46
60611;BME280;46439;51.164;13.572;2023-03-03T13:21:05;100764.86;;;1.96;73.63
60611;BME280;46439;51.164;13.572;2023-03-03T13:23:49;100766.44;;;1.99;73.72
60611;BME280;46439;51.164;13.572;2023-03-03T13:26:21;100766.77;;;1.97;73.39
60611;BME280;46439;51.164;13.572;2023-03-03T13:29:08;100770.67;;;1.94;73.22
60611;BME280;46439;51.164;13.572;2023-03-03T13:31:42;100765.84;;;1.95;73.33
60611;BME280;46439;51.164;13.572;2023-03-03T13:34:22;100767.93;;;2.03;73.33
60611;BME280;46439;51.164;13.572;2023-03-03T13:36:55;100761.18;;;2.08;73.64
60611;BME280;46439;51.164;13.572;2023-03-03T13:39:28;100755.58;;;2.10;73.54